← Previous February 27, 2024 7:11 AM

FTUS43 KFSD 251120
TAFHON
TAF
KHON 251120Z 2512/2612 31006KT P6SM BKN110
     FM251900 26007KT P6SM SCT080
     FM260000 19005KT P6SM SCT250
     FM260400 16008KT P6SM SCT250
     FM260800 16010KT P6SM FEW250 WS020/18040KT=